sensor_id;sensor_type;location;lat;lon;timestamp;P1;durP1;ratioP1;P2;durP2;ratioP2
69841;SDS011;57138;51.326;-0.068;2024-01-30T00:01:41;30.05;;;10.52;;
69841;SDS011;57138;51.326;-0.068;2024-01-30T00:04:06;24.80;;;11.05;;
69841;SDS011;57138;51.326;-0.068;2024-01-30T00:06:32;32.80;;;11.35;;
69841;SDS011;57138;51.326;-0.068;2024-01-30T00:08:58;22.90;;;8.35;;
69841;SDS011;57138;51.326;-0.068;2024-01-30T00:11:23;26.70;;;10.73;;
69841;SDS011;57138;51.326;-0.068;2024-01-30T00:13:50;34.80;;;12.40;;
69841;SDS011;57138;51.326;-0.068;2024-01-30T00:16:23;41.50;;;11.23;;
69841;SDS011;57138;51.326;-0.068;2024-01-30T00:18:50;22.85;;;7.82;;
69841;SDS011;57138;51.326;-0.068;2024-01-30T00:21:16;30.70;;;9.75;;
69841;SDS011;57138;51.326;-0.068;2024-01-30T00:23:45;38.03;;;12.52;;
69841;SDS011;57138;51.326;-0.068;2024-01-30T00:26:11;31.75;;;10.52;;
69841;SDS011;57138;51.326;-0.068;2024-01-30T00:28:37;23.88;;;9.48;;
69841;SDS011;57138;51.326;-0.068;2024-01-30T00:31:03;35.17;;;9.68;;
69841;SDS011;57138;51.326;-0.068;2024-01-30T00:33:29;47.17;;;11.82;;
69841;SDS011;57138;51.326;-0.068;2024-01-30T00:35:54;28.48;;;9.60;;
69841;SDS011;57138;51.326;-0.068;2024-01-30T00:38:20;30.92;;;9.63;;
69841;SDS011;57138;51.326;-0.068;2024-01-30T00:40:45;21.55;;;8.18;;
69841;SDS011;57138;51.326;-0.068;2024-01-30T00:43:11;28.45;;;8.90;;
69841;SDS011;57138;51.326;-0.068;2024-01-30T00:45:36;21.13;;;7.22;;
69841;SDS011;57138;51.326;-0.068;2024-01-30T00:48:02;22.13;;;6.80;;
69841;SDS011;57138;51.326;-0.068;2024-01-30T00:50:27;23.70;;;7.57;;
69841;SDS011;57138;51.326;-0.068;2024-01-30T00:52:53;25.23;;;8.10;;
69841;SDS011;57138;51.326;-0.068;2024-01-30T00:55:18;26.80;;;7.45;;
69841;SDS011;57138;51.326;-0.068;2024-01-30T00:57:44;23.15;;;9.20;;
69841;SDS011;57138;51.326;-0.068;2024-01-30T01:00:09;23.77;;;7.10;;
69841;SDS011;57138;51.326;-0.068;2024-01-30T01:02:35;22.40;;;6.47;;
69841;SDS011;57138;51.326;-0.068;2024-01-30T01:05:01;21.38;;;5.45;;
69841;SDS011;57138;51.326;-0.068;2024-01-30T01:07:27;12.60;;;4.03;;
69841;SDS011;57138;51.326;-0.068;2024-01-30T01:09:52;17.15;;;5.43;;
69841;SDS011;57138;51.326;-0.068;2024-01-30T01:12:18;18.10;;;5.22;;
69841;SDS011;57138;51.326;-0.068;2024-01-30T01:14:43;16.98;;;3.92;;
69841;SDS011;57138;51.326;-0.068;2024-01-30T01:17:09;14.60;;;4.72;;
69841;SDS011;57138;51.326;-0.068;2024-01-30T01:19:34;17.60;;;3.85;;
69841;SDS011;57138;51.326;-0.068;2024-01-30T01:22:00;16.88;;;3.28;;
69841;SDS011;57138;51.326;-0.068;2024-01-30T01:24:25;17.10;;;3.35;;
69841;SDS011;57138;51.326;-0.068;2024-01-30T01:26:51;10.15;;;2.92;;
69841;SDS011;57138;51.326;-0.068;2024-01-30T01:29:16;14.25;;;2.55;;
69841;SDS011;57138;51.326;-0.068;2024-01-30T01:31:42;17.13;;;3.05;;
69841;SDS011;57138;51.326;-0.068;2024-01-30T01:34:11;9.88;;;1.27;;
69841;SDS011;57138;51.326;-0.068;2024-01-30T01:36:36;12.60;;;2.00;;
69841;SDS011;57138;51.326;-0.068;2024-01-30T01:39:02;8.95;;;1.88;;
69841;SDS011;57138;51.326;-0.068;2024-01-30T01:41:31;16.08;;;2.53;;
69841;SDS011;57138;51.326;-0.068;2024-01-30T01:43:57;8.30;;;1.63;;
69841;SDS011;57138;51.326;-0.068;2024-01-30T01:46:23;11.75;;;2.13;;
69841;SDS011;57138;51.326;-0.068;2024-01-30T01:48:51;11.13;;;2.22;;
69841;SDS011;57138;51.326;-0.068;2024-01-30T01:51:17;10.98;;;1.40;;
69841;SDS011;57138;51.326;-0.068;2024-01-30T01:53:43;11.82;;;1.70;;
69841;SDS011;57138;51.326;-0.068;2024-01-30T01:56:09;13.57;;;1.55;;
69841;SDS011;57138;51.326;-0.068;2024-01-30T01:58:35;9.88;;;1.65;;
69841;SDS011;57138;51.326;-0.068;2024-01-30T02:01:02;9.07;;;1.67;;
69841;SDS011;57138;51.326;-0.068;2024-01-30T02:03:30;14.55;;;2.38;;
69841;SDS011;57138;51.326;-0.068;2024-01-30T02:05:55;10.25;;;2.10;;
69841;SDS011;57138;51.326;-0.068;2024-01-30T02:08:22;15.60;;;2.15;;
69841;SDS011;57138;51.326;-0.068;2024-01-30T02:10:49;16.13;;;3.55;;
69841;SDS011;57138;51.326;-0.068;2024-01-30T02:13:14;11.43;;;1.65;;
69841;SDS011;57138;51.326;-0.068;2024-01-30T02:15:40;9.32;;;1.40;;
69841;SDS011;57138;51.326;-0.068;2024-01-30T02:18:05;7.82;;;1.25;;
69841;SDS011;57138;51.326;-0.068;2024-01-30T02:20:34;10.25;;;1.83;;
69841;SDS011;57138;51.326;-0.068;2024-01-30T02:23:01;13.45;;;1.55;;
69841;SDS011;57138;51.326;-0.068;2024-01-30T02:25:32;6.65;;;1.90;;
69841;SDS011;57138;51.326;-0.068;2024-01-30T02:28:01;10.35;;;1.65;;
69841;SDS011;57138;51.326;-0.068;2024-01-30T02:30:27;11.20;;;1.38;;
69841;SDS011;57138;51.326;-0.068;2024-01-30T02:32:52;7.43;;;1.45;;
69841;SDS011;57138;51.326;-0.068;2024-01-30T02:35:18;8.70;;;1.30;;
69841;SDS011;57138;51.326;-0.068;2024-01-30T02:37:43;8.32;;;1.50;;
69841;SDS011;57138;51.326;-0.068;2024-01-30T02:40:09;5.78;;;1.08;;
69841;SDS011;57138;51.326;-0.068;2024-01-30T02:42:34;9.80;;;1.65;;
69841;SDS011;57138;51.326;-0.068;2024-01-30T02:44:59;11.60;;;1.33;;
69841;SDS011;57138;51.326;-0.068;2024-01-30T02:47:25;16.13;;;2.60;;
69841;SDS011;57138;51.326;-0.068;2024-01-30T02:49:50;14.65;;;1.80;;
69841;SDS011;57138;51.326;-0.068;2024-01-30T02:52:16;17.35;;;1.80;;
69841;SDS011;57138;51.326;-0.068;2024-01-30T02:54:41;6.90;;;1.00;;
69841;SDS011;57138;51.326;-0.068;2024-01-30T02:57:07;10.15;;;1.50;;
69841;SDS011;57138;51.326;-0.068;2024-01-30T02:59:33;16.08;;;1.95;;
69841;SDS011;57138;51.326;-0.068;2024-01-30T03:02:00;9.73;;;1.55;;
69841;SDS011;57138;51.326;-0.068;2024-01-30T03:04:26;13.20;;;3.72;;
69841;SDS011;57138;51.326;-0.068;2024-01-30T03:06:51;18.45;;;2.60;;
69841;SDS011;57138;51.326;-0.068;2024-01-30T03:09:17;8.27;;;1.70;;
69841;SDS011;57138;51.326;-0.068;2024-01-30T03:11:43;13.55;;;1.60;;
69841;SDS011;57138;51.326;-0.068;2024-01-30T03:14:08;17.45;;;2.58;;
69841;SDS011;57138;51.326;-0.068;2024-01-30T03:16:36;16.05;;;1.80;;
69841;SDS011;57138;51.326;-0.068;2024-01-30T03:19:02;18.30;;;3.47;;
69841;SDS011;57138;51.326;-0.068;2024-01-30T03:21:28;8.68;;;2.03;;
69841;SDS011;57138;51.326;-0.068;2024-01-30T03:23:54;10.07;;;2.05;;
69841;SDS011;57138;51.326;-0.068;2024-01-30T03:26:19;13.55;;;2.15;;
69841;SDS011;57138;51.326;-0.068;2024-01-30T03:28:45;12.57;;;2.83;;
69841;SDS011;57138;51.326;-0.068;2024-01-30T03:31:12;14.10;;;2.38;;
69841;SDS011;57138;51.326;-0.068;2024-01-30T03:33:39;14.15;;;2.63;;
69841;SDS011;57138;51.326;-0.068;2024-01-30T03:36:04;16.67;;;2.78;;
69841;SDS011;57138;51.326;-0.068;2024-01-30T03:38:30;23.13;;;3.65;;
69841;SDS011;57138;51.326;-0.068;2024-01-30T03:40:57;11.15;;;2.65;;
69841;SDS011;57138;51.326;-0.068;2024-01-30T03:43:23;14.73;;;2.30;;
69841;SDS011;57138;51.326;-0.068;2024-01-30T03:45:49;10.38;;;2.42;;
69841;SDS011;57138;51.326;-0.068;2024-01-30T03:48:14;13.60;;;3.58;;
69841;SDS011;57138;51.326;-0.068;2024-01-30T03:50:40;14.70;;;1.90;;
69841;SDS011;57138;51.326;-0.068;2024-01-30T03:53:05;5.50;;;1.50;;
69841;SDS011;57138;51.326;-0.068;2024-01-30T03:55:31;10.13;;;1.55;;
69841;SDS011;57138;51.326;-0.068;2024-01-30T03:57:56;8.27;;;1.30;;
69841;SDS011;57138;51.326;-0.068;2024-01-30T04:00:22;9.27;;;1.00;;
69841;SDS011;57138;51.326;-0.068;2024-01-30T04:02:47;3.38;;;1.05;;
69841;SDS011;57138;51.326;-0.068;2024-01-30T04:05:12;7.00;;;1.15;;
69841;SDS011;57138;51.326;-0.068;2024-01-30T04:07:38;6.13;;;0.95;;
69841;SDS011;57138;51.326;-0.068;2024-01-30T04:10:04;6.78;;;1.98;;
69841;SDS011;57138;51.326;-0.068;2024-01-30T04:12:31;4.70;;;0.90;;
69841;SDS011;57138;51.326;-0.068;2024-01-30T04:14:56;7.30;;;1.02;;
69841;SDS011;57138;51.326;-0.068;2024-01-30T04:17:22;6.63;;;1.38;;
69841;SDS011;57138;51.326;-0.068;2024-01-30T04:19:47;6.25;;;1.30;;
69841;SDS011;57138;51.326;-0.068;2024-01-30T04:22:13;7.35;;;1.30;;
69841;SDS011;57138;51.326;-0.068;2024-01-30T04:24:39;6.75;;;1.60;;
69841;SDS011;57138;51.326;-0.068;2024-01-30T04:27:04;9.10;;;1.70;;
69841;SDS011;57138;51.326;-0.068;2024-01-30T04:29:30;8.40;;;2.08;;
69841;SDS011;57138;51.326;-0.068;2024-01-30T04:31:57;6.88;;;1.40;;
69841;SDS011;57138;51.326;-0.068;2024-01-30T04:34:22;5.05;;;1.40;;
69841;SDS011;57138;51.326;-0.068;2024-01-30T04:36:48;5.68;;;1.35;;
69841;SDS011;57138;51.326;-0.068;2024-01-30T04:39:13;9.95;;;1.40;;
69841;SDS011;57138;51.326;-0.068;2024-01-30T04:41:39;4.78;;;1.45;;
69841;SDS011;57138;51.326;-0.068;2024-01-30T04:44:04;8.15;;;1.67;;
69841;SDS011;57138;51.326;-0.068;2024-01-30T04:46:30;7.82;;;1.90;;
69841;SDS011;57138;51.326;-0.068;2024-01-30T04:48:55;4.68;;;1.52;;
69841;SDS011;57138;51.326;-0.068;2024-01-30T04:51:21;8.98;;;2.20;;
69841;SDS011;57138;51.326;-0.068;2024-01-30T04:53:46;6.88;;;1.70;;
69841;SDS011;57138;51.326;-0.068;2024-01-30T04:56:12;9.60;;;2.28;;
69841;SDS011;57138;51.326;-0.068;2024-01-30T04:58:37;8.38;;;2.10;;
69841;SDS011;57138;51.326;-0.068;2024-01-30T05:01:03;8.30;;;2.30;;
69841;SDS011;57138;51.326;-0.068;2024-01-30T05:03:28;9.88;;;2.25;;
69841;SDS011;57138;51.326;-0.068;2024-01-30T05:05:57;12.18;;;2.63;;
69841;SDS011;57138;51.326;-0.068;2024-01-30T05:08:23;10.13;;;2.75;;
69841;SDS011;57138;51.326;-0.068;2024-01-30T05:10:49;11.57;;;2.33;;
69841;SDS011;57138;51.326;-0.068;2024-01-30T05:13:14;9.27;;;3.05;;
69841;SDS011;57138;51.326;-0.068;2024-01-30T05:15:40;6.13;;;2.33;;
69841;SDS011;57138;51.326;-0.068;2024-01-30T05:18:05;13.05;;;2.97;;
69841;SDS011;57138;51.326;-0.068;2024-01-30T05:20:30;8.77;;;2.80;;
69841;SDS011;57138;51.326;-0.068;2024-01-30T05:22:56;11.52;;;2.50;;
69841;SDS011;57138;51.326;-0.068;2024-01-30T05:25:21;13.55;;;2.95;;
69841;SDS011;57138;51.326;-0.068;2024-01-30T05:27:48;11.10;;;2.33;;
69841;SDS011;57138;51.326;-0.068;2024-01-30T05:30:13;10.00;;;2.92;;
69841;SDS011;57138;51.326;-0.068;2024-01-30T05:32:39;9.90;;;2.20;;
69841;SDS011;57138;51.326;-0.068;2024-01-30T05:35:04;9.68;;;2.13;;
69841;SDS011;57138;51.326;-0.068;2024-01-30T05:37:30;6.43;;;2.20;;
69841;SDS011;57138;51.326;-0.068;2024-01-30T05:39:56;11.60;;;2.53;;
69841;SDS011;57138;51.326;-0.068;2024-01-30T05:42:22;7.32;;;1.90;;
69841;SDS011;57138;51.326;-0.068;2024-01-30T05:44:47;6.97;;;1.90;;
69841;SDS011;57138;51.326;-0.068;2024-01-30T05:47:14;6.80;;;1.20;;
69841;SDS011;57138;51.326;-0.068;2024-01-30T05:49:39;4.90;;;1.27;;
69841;SDS011;57138;51.326;-0.068;2024-01-30T05:52:05;4.57;;;1.35;;
69841;SDS011;57138;51.326;-0.068;2024-01-30T05:54:30;4.47;;;1.50;;
69841;SDS011;57138;51.326;-0.068;2024-01-30T05:56:56;4.18;;;0.80;;
69841;SDS011;57138;51.326;-0.068;2024-01-30T05:59:21;2.53;;;0.75;;
69841;SDS011;57138;51.326;-0.068;2024-01-30T06:01:47;2.47;;;0.80;;
69841;SDS011;57138;51.326;-0.068;2024-01-30T06:04:13;1.92;;;0.80;;
69841;SDS011;57138;51.326;-0.068;2024-01-30T06:06:38;2.20;;;0.68;;
69841;SDS011;57138;51.326;-0.068;2024-01-30T06:09:04;2.92;;;0.88;;
69841;SDS011;57138;51.326;-0.068;2024-01-30T06:11:29;1.60;;;0.75;;
69841;SDS011;57138;51.326;-0.068;2024-01-30T06:13:55;1.15;;;0.50;;
69841;SDS011;57138;51.326;-0.068;2024-01-30T06:16:20;2.17;;;0.77;;
69841;SDS011;57138;51.326;-0.068;2024-01-30T06:18:46;2.60;;;0.82;;
69841;SDS011;57138;51.326;-0.068;2024-01-30T06:21:12;4.85;;;0.93;;
69841;SDS011;57138;51.326;-0.068;2024-01-30T06:23:38;3.33;;;1.10;;
69841;SDS011;57138;51.326;-0.068;2024-01-30T06:26:03;4.70;;;0.90;;
69841;SDS011;57138;51.326;-0.068;2024-01-30T06:28:30;7.15;;;2.78;;
69841;SDS011;57138;51.326;-0.068;2024-01-30T06:30:55;6.75;;;2.15;;
69841;SDS011;57138;51.326;-0.068;2024-01-30T06:33:21;4.15;;;0.95;;
69841;SDS011;57138;51.326;-0.068;2024-01-30T06:35:46;4.20;;;1.05;;
69841;SDS011;57138;51.326;-0.068;2024-01-30T06:38:12;3.30;;;0.82;;
69841;SDS011;57138;51.326;-0.068;2024-01-30T06:40:38;3.63;;;1.25;;
69841;SDS011;57138;51.326;-0.068;2024-01-30T06:43:04;4.40;;;1.23;;
69841;SDS011;57138;51.326;-0.068;2024-01-30T06:45:30;5.38;;;1.13;;
69841;SDS011;57138;51.326;-0.068;2024-01-30T06:47:55;5.28;;;1.35;;
69841;SDS011;57138;51.326;-0.068;2024-01-30T06:50:21;7.20;;;1.50;;
69841;SDS011;57138;51.326;-0.068;2024-01-30T06:52:46;4.50;;;1.95;;
69841;SDS011;57138;51.326;-0.068;2024-01-30T06:55:12;6.10;;;1.70;;
69841;SDS011;57138;51.326;-0.068;2024-01-30T06:57:37;7.90;;;1.90;;
69841;SDS011;57138;51.326;-0.068;2024-01-30T07:00:03;5.43;;;2.70;;
69841;SDS011;57138;51.326;-0.068;2024-01-30T07:02:28;5.97;;;2.97;;
69841;SDS011;57138;51.326;-0.068;2024-01-30T07:04:56;7.68;;;3.28;;
69841;SDS011;57138;51.326;-0.068;2024-01-30T07:07:22;6.10;;;3.22;;
69841;SDS011;57138;51.326;-0.068;2024-01-30T07:09:47;6.50;;;3.58;;
69841;SDS011;57138;51.326;-0.068;2024-01-30T07:12:14;5.70;;;3.28;;
69841;SDS011;57138;51.326;-0.068;2024-01-30T07:14:40;13.38;;;4.47;;
69841;SDS011;57138;51.326;-0.068;2024-01-30T07:17:05;7.15;;;3.55;;
69841;SDS011;57138;51.326;-0.068;2024-01-30T07:19:31;6.63;;;3.60;;
69841;SDS011;57138;51.326;-0.068;2024-01-30T07:21:56;10.30;;;3.60;;
69841;SDS011;57138;51.326;-0.068;2024-01-30T07:24:22;6.90;;;3.50;;
69841;SDS011;57138;51.326;-0.068;2024-01-30T07:26:47;6.32;;;3.78;;
69841;SDS011;57138;51.326;-0.068;2024-01-30T07:29:13;10.18;;;3.70;;
69841;SDS011;57138;51.326;-0.068;2024-01-30T07:31:38;9.65;;;4.00;;
69841;SDS011;57138;51.326;-0.068;2024-01-30T07:34:04;6.50;;;3.22;;
69841;SDS011;57138;51.326;-0.068;2024-01-30T07:36:29;6.68;;;3.30;;
69841;SDS011;57138;51.326;-0.068;2024-01-30T07:38:55;8.75;;;3.15;;
69841;SDS011;57138;51.326;-0.068;2024-01-30T07:41:20;7.38;;;4.20;;
69841;SDS011;57138;51.326;-0.068;2024-01-30T07:43:46;8.18;;;3.33;;
69841;SDS011;57138;51.326;-0.068;2024-01-30T07:46:11;7.95;;;3.42;;
69841;SDS011;57138;51.326;-0.068;2024-01-30T07:48:37;5.28;;;3.17;;
69841;SDS011;57138;51.326;-0.068;2024-01-30T07:51:02;5.38;;;3.30;;
69841;SDS011;57138;51.326;-0.068;2024-01-30T07:53:29;5.97;;;3.08;;
69841;SDS011;57138;51.326;-0.068;2024-01-30T07:55:54;5.20;;;3.08;;
69841;SDS011;57138;51.326;-0.068;2024-01-30T07:58:20;7.30;;;2.88;;
69841;SDS011;57138;51.326;-0.068;2024-01-30T08:00:45;6.97;;;3.28;;
69841;SDS011;57138;51.326;-0.068;2024-01-30T08:03:11;8.27;;;3.53;;
69841;SDS011;57138;51.326;-0.068;2024-01-30T08:05:37;7.22;;;2.72;;
69841;SDS011;57138;51.326;-0.068;2024-01-30T08:08:04;6.15;;;2.55;;
69841;SDS011;57138;51.326;-0.068;2024-01-30T08:10:29;4.57;;;2.58;;
69841;SDS011;57138;51.326;-0.068;2024-01-30T08:12:55;6.25;;;2.85;;
69841;SDS011;57138;51.326;-0.068;2024-01-30T08:15:20;4.22;;;2.17;;
69841;SDS011;57138;51.326;-0.068;2024-01-30T08:17:46;4.30;;;2.00;;
69841;SDS011;57138;51.326;-0.068;2024-01-30T08:20:11;4.78;;;1.88;;
69841;SDS011;57138;51.326;-0.068;2024-01-30T08:22:40;6.90;;;1.80;;
69841;SDS011;57138;51.326;-0.068;2024-01-30T08:25:08;7.20;;;1.77;;
69841;SDS011;57138;51.326;-0.068;2024-01-30T08:27:35;5.95;;;1.50;;
69841;SDS011;57138;51.326;-0.068;2024-01-30T08:30:02;4.28;;;1.27;;
69841;SDS011;57138;51.326;-0.068;2024-01-30T08:32:28;4.43;;;1.35;;
69841;SDS011;57138;51.326;-0.068;2024-01-30T08:34:53;2.78;;;1.20;;
69841;SDS011;57138;51.326;-0.068;2024-01-30T08:37:19;3.63;;;1.10;;
69841;SDS011;57138;51.326;-0.068;2024-01-30T08:39:45;3.50;;;1.48;;
69841;SDS011;57138;51.326;-0.068;2024-01-30T08:42:10;5.70;;;1.33;;
69841;SDS011;57138;51.326;-0.068;2024-01-30T08:44:36;2.33;;;0.80;;
69841;SDS011;57138;51.326;-0.068;2024-01-30T08:47:02;3.63;;;1.17;;
69841;SDS011;57138;51.326;-0.068;2024-01-30T08:49:28;3.85;;;1.00;;
69841;SDS011;57138;51.326;-0.068;2024-01-30T08:51:53;2.67;;;0.88;;
69841;SDS011;57138;51.326;-0.068;2024-01-30T08:54:19;2.63;;;0.98;;
69841;SDS011;57138;51.326;-0.068;2024-01-30T08:56:44;1.52;;;0.70;;
69841;SDS011;57138;51.326;-0.068;2024-01-30T08:59:10;6.53;;;0.98;;
69841;SDS011;57138;51.326;-0.068;2024-01-30T09:01:36;2.30;;;0.70;;
69841;SDS011;57138;51.326;-0.068;2024-01-30T09:04:01;2.90;;;0.80;;
69841;SDS011;57138;51.326;-0.068;2024-01-30T09:06:27;1.30;;;0.47;;
69841;SDS011;57138;51.326;-0.068;2024-01-30T09:08:53;2.40;;;0.57;;
69841;SDS011;57138;51.326;-0.068;2024-01-30T09:11:19;2.25;;;0.50;;
69841;SDS011;57138;51.326;-0.068;2024-01-30T09:13:44;1.10;;;0.50;;
69841;SDS011;57138;51.326;-0.068;2024-01-30T09:16:10;1.63;;;0.50;;
69841;SDS011;57138;51.326;-0.068;2024-01-30T09:18:36;2.53;;;0.50;;
69841;SDS011;57138;51.326;-0.068;2024-01-30T09:21:01;5.05;;;1.58;;
69841;SDS011;57138;51.326;-0.068;2024-01-30T09:23:27;1.80;;;0.50;;
69841;SDS011;57138;51.326;-0.068;2024-01-30T09:25:56;1.88;;;0.50;;
69841;SDS011;57138;51.326;-0.068;2024-01-30T09:28:21;1.58;;;0.50;;
69841;SDS011;57138;51.326;-0.068;2024-01-30T09:30:47;1.05;;;0.43;;
69841;SDS011;57138;51.326;-0.068;2024-01-30T09:33:12;2.25;;;0.50;;
69841;SDS011;57138;51.326;-0.068;2024-01-30T09:35:38;0.85;;;0.50;;
69841;SDS011;57138;51.326;-0.068;2024-01-30T09:38:03;1.50;;;0.40;;
69841;SDS011;57138;51.326;-0.068;2024-01-30T09:40:29;2.63;;;0.65;;
69841;SDS011;57138;51.326;-0.068;2024-01-30T09:42:54;1.15;;;0.40;;
69841;SDS011;57138;51.326;-0.068;2024-01-30T09:45:24;3.58;;;1.38;;
69841;SDS011;57138;51.326;-0.068;2024-01-30T09:47:51;3.40;;;0.70;;
69841;SDS011;57138;51.326;-0.068;2024-01-30T09:50:17;1.63;;;0.57;;
69841;SDS011;57138;51.326;-0.068;2024-01-30T09:52:46;2.42;;;0.68;;
69841;SDS011;57138;51.326;-0.068;2024-01-30T09:55:13;3.10;;;0.75;;
69841;SDS011;57138;51.326;-0.068;2024-01-30T09:57:39;2.42;;;0.82;;
69841;SDS011;57138;51.326;-0.068;2024-01-30T10:00:05;4.88;;;0.60;;
69841;SDS011;57138;51.326;-0.068;2024-01-30T10:02:34;3.25;;;0.95;;
69841;SDS011;57138;51.326;-0.068;2024-01-30T10:05:00;2.60;;;0.65;;
69841;SDS011;57138;51.326;-0.068;2024-01-30T10:07:26;2.05;;;0.65;;
69841;SDS011;57138;51.326;-0.068;2024-01-30T10:09:52;1.92;;;0.60;;
69841;SDS011;57138;51.326;-0.068;2024-01-30T10:12:18;10.35;;;1.50;;
69841;SDS011;57138;51.326;-0.068;2024-01-30T10:14:44;1.98;;;0.50;;
69841;SDS011;57138;51.326;-0.068;2024-01-30T10:17:10;1.85;;;0.60;;
69841;SDS011;57138;51.326;-0.068;2024-01-30T10:19:36;1.45;;;0.55;;
69841;SDS011;57138;51.326;-0.068;2024-01-30T10:22:03;3.30;;;0.60;;
69841;SDS011;57138;51.326;-0.068;2024-01-30T10:24:29;1.92;;;0.60;;
69841;SDS011;57138;51.326;-0.068;2024-01-30T10:26:55;1.63;;;0.50;;
69841;SDS011;57138;51.326;-0.068;2024-01-30T10:29:21;4.18;;;0.77;;
69841;SDS011;57138;51.326;-0.068;2024-01-30T10:32:03;2.25;;;0.50;;
69841;SDS011;57138;51.326;-0.068;2024-01-30T10:34:30;1.98;;;0.50;;
69841;SDS011;57138;51.326;-0.068;2024-01-30T10:37:06;0.73;;;0.30;;
69841;SDS011;57138;51.326;-0.068;2024-01-30T10:39:34;2.35;;;0.57;;
69841;SDS011;57138;51.326;-0.068;2024-01-30T10:42:04;1.10;;;0.50;;
69841;SDS011;57138;51.326;-0.068;2024-01-30T10:44:43;2.80;;;0.68;;
69841;SDS011;57138;51.326;-0.068;2024-01-30T10:47:32;1.48;;;0.50;;
69841;SDS011;57138;51.326;-0.068;2024-01-30T10:50:01;1.58;;;0.57;;
69841;SDS011;57138;51.326;-0.068;2024-01-30T10:52:28;1.27;;;0.50;;
69841;SDS011;57138;51.326;-0.068;2024-01-30T10:54:55;1.45;;;0.50;;
69841;SDS011;57138;51.326;-0.068;2024-01-30T10:57:25;2.95;;;0.80;;
69841;SDS011;57138;51.326;-0.068;2024-01-30T10:59:52;6.40;;;2.10;;
69841;SDS011;57138;51.326;-0.068;2024-01-30T11:02:20;7.60;;;3.13;;
69841;SDS011;57138;51.326;-0.068;2024-01-30T11:04:48;14.40;;;6.72;;
69841;SDS011;57138;51.326;-0.068;2024-01-30T11:07:18;7.53;;;3.38;;
69841;SDS011;57138;51.326;-0.068;2024-01-30T11:09:52;4.13;;;2.08;;
69841;SDS011;57138;51.326;-0.068;2024-01-30T11:12:22;12.48;;;6.20;;
69841;SDS011;57138;51.326;-0.068;2024-01-30T11:14:48;18.65;;;10.00;;
69841;SDS011;57138;51.326;-0.068;2024-01-30T11:17:14;6.22;;;2.92;;
69841;SDS011;57138;51.326;-0.068;2024-01-30T11:19:41;9.35;;;4.15;;
69841;SDS011;57138;51.326;-0.068;2024-01-30T11:22:07;7.50;;;3.40;;
69841;SDS011;57138;51.326;-0.068;2024-01-30T11:24:39;12.07;;;5.57;;
69841;SDS011;57138;51.326;-0.068;2024-01-30T11:27:08;14.10;;;7.67;;
69841;SDS011;57138;51.326;-0.068;2024-01-30T11:29:37;7.05;;;2.80;;
69841;SDS011;57138;51.326;-0.068;2024-01-30T11:32:03;8.65;;;4.85;;
69841;SDS011;57138;51.326;-0.068;2024-01-30T11:34:29;8.43;;;3.95;;
69841;SDS011;57138;51.326;-0.068;2024-01-30T11:37:03;10.98;;;4.95;;
69841;SDS011;57138;51.326;-0.068;2024-01-30T11:39:34;2.05;;;0.90;;
69841;SDS011;57138;51.326;-0.068;2024-01-30T11:42:01;8.20;;;2.92;;
69841;SDS011;57138;51.326;-0.068;2024-01-30T11:44:30;5.15;;;1.80;;
69841;SDS011;57138;51.326;-0.068;2024-01-30T11:46:56;5.68;;;2.67;;
69841;SDS011;57138;51.326;-0.068;2024-01-30T11:49:22;6.70;;;3.00;;
69841;SDS011;57138;51.326;-0.068;2024-01-30T11:51:48;9.73;;;4.40;;
69841;SDS011;57138;51.326;-0.068;2024-01-30T11:54:14;7.20;;;4.03;;
69841;SDS011;57138;51.326;-0.068;2024-01-30T11:56:41;6.75;;;3.05;;
69841;SDS011;57138;51.326;-0.068;2024-01-30T11:59:07;9.73;;;3.92;;
69841;SDS011;57138;51.326;-0.068;2024-01-30T12:01:32;6.18;;;2.63;;
69841;SDS011;57138;51.326;-0.068;2024-01-30T12:03:58;15.55;;;5.97;;
69841;SDS011;57138;51.326;-0.068;2024-01-30T12:06:28;8.52;;;3.00;;
69841;SDS011;57138;51.326;-0.068;2024-01-30T12:09:00;5.78;;;1.55;;
69841;SDS011;57138;51.326;-0.068;2024-01-30T12:11:29;4.00;;;1.52;;
69841;SDS011;57138;51.326;-0.068;2024-01-30T12:13:55;9.93;;;2.65;;
69841;SDS011;57138;51.326;-0.068;2024-01-30T12:16:25;4.97;;;1.70;;
69841;SDS011;57138;51.326;-0.068;2024-01-30T12:18:58;6.38;;;2.83;;
69841;SDS011;57138;51.326;-0.068;2024-01-30T12:21:24;13.45;;;5.53;;
69841;SDS011;57138;51.326;-0.068;2024-01-30T12:23:51;4.22;;;1.90;;
69841;SDS011;57138;51.326;-0.068;2024-01-30T12:26:17;21.02;;;8.32;;
69841;SDS011;57138;51.326;-0.068;2024-01-30T12:28:49;14.88;;;7.18;;
69841;SDS011;57138;51.326;-0.068;2024-01-30T12:31:15;6.13;;;1.88;;
69841;SDS011;57138;51.326;-0.068;2024-01-30T12:33:41;15.68;;;5.20;;
69841;SDS011;57138;51.326;-0.068;2024-01-30T12:36:06;3.92;;;1.00;;
69841;SDS011;57138;51.326;-0.068;2024-01-30T12:38:32;2.90;;;0.50;;
69841;SDS011;57138;51.326;-0.068;2024-01-30T12:40:58;2.50;;;0.80;;
69841;SDS011;57138;51.326;-0.068;2024-01-30T12:43:25;1.42;;;0.70;;
69841;SDS011;57138;51.326;-0.068;2024-01-30T12:45:52;7.10;;;2.88;;
69841;SDS011;57138;51.326;-0.068;2024-01-30T12:48:18;7.68;;;3.33;;
69841;SDS011;57138;51.326;-0.068;2024-01-30T12:50:43;6.55;;;2.75;;
69841;SDS011;57138;51.326;-0.068;2024-01-30T12:53:09;12.48;;;5.70;;
69841;SDS011;57138;51.326;-0.068;2024-01-30T12:55:35;8.25;;;2.90;;
69841;SDS011;57138;51.326;-0.068;2024-01-30T12:58:00;7.35;;;2.95;;
69841;SDS011;57138;51.326;-0.068;2024-01-30T13:00:26;7.03;;;2.80;;
69841;SDS011;57138;51.326;-0.068;2024-01-30T13:02:52;3.95;;;1.35;;
69841;SDS011;57138;51.326;-0.068;2024-01-30T13:05:17;5.05;;;1.63;;
69841;SDS011;57138;51.326;-0.068;2024-01-30T13:07:43;3.47;;;1.20;;
69841;SDS011;57138;51.326;-0.068;2024-01-30T13:10:08;4.53;;;1.73;;
69841;SDS011;57138;51.326;-0.068;2024-01-30T13:12:34;5.05;;;1.88;;
69841;SDS011;57138;51.326;-0.068;2024-01-30T13:15:00;3.60;;;1.40;;
69841;SDS011;57138;51.326;-0.068;2024-01-30T13:17:26;6.20;;;1.80;;
69841;SDS011;57138;51.326;-0.068;2024-01-30T13:19:52;6.20;;;1.13;;
69841;SDS011;57138;51.326;-0.068;2024-01-30T13:22:19;3.28;;;0.95;;
69841;SDS011;57138;51.326;-0.068;2024-01-30T13:24:46;6.25;;;2.40;;
69841;SDS011;57138;51.326;-0.068;2024-01-30T13:27:12;4.78;;;1.70;;
69841;SDS011;57138;51.326;-0.068;2024-01-30T13:29:40;7.45;;;2.03;;
69841;SDS011;57138;51.326;-0.068;2024-01-30T13:32:05;5.53;;;1.40;;
69841;SDS011;57138;51.326;-0.068;2024-01-30T13:34:31;5.93;;;1.52;;
69841;SDS011;57138;51.326;-0.068;2024-01-30T13:36:57;3.97;;;1.60;;
69841;SDS011;57138;51.326;-0.068;2024-01-30T13:39:22;3.85;;;1.02;;
69841;SDS011;57138;51.326;-0.068;2024-01-30T13:41:48;3.45;;;1.15;;
69841;SDS011;57138;51.326;-0.068;2024-01-30T13:44:15;3.05;;;1.33;;
69841;SDS011;57138;51.326;-0.068;2024-01-30T13:46:42;1.90;;;0.80;;
69841;SDS011;57138;51.326;-0.068;2024-01-30T13:49:08;4.45;;;0.80;;
69841;SDS011;57138;51.326;-0.068;2024-01-30T13:51:34;1.65;;;0.70;;
69841;SDS011;57138;51.326;-0.068;2024-01-30T13:54:00;3.53;;;1.00;;
69841;SDS011;57138;51.326;-0.068;2024-01-30T13:56:26;5.25;;;1.00;;
69841;SDS011;57138;51.326;-0.068;2024-01-30T13:58:53;4.72;;;0.90;;
69841;SDS011;57138;51.326;-0.068;2024-01-30T14:01:20;3.88;;;1.25;;
69841;SDS011;57138;51.326;-0.068;2024-01-30T14:03:46;4.80;;;1.23;;
69841;SDS011;57138;51.326;-0.068;2024-01-30T14:09:20;8.30;;;2.13;;
69841;SDS011;57138;51.326;-0.068;2024-01-30T14:11:57;4.63;;;1.25;;
69841;SDS011;57138;51.326;-0.068;2024-01-30T14:14:25;4.72;;;1.30;;
69841;SDS011;57138;51.326;-0.068;2024-01-30T14:16:50;39.95;;;7.40;;
69841;SDS011;57138;51.326;-0.068;2024-01-30T14:19:16;3.63;;;0.90;;
69841;SDS011;57138;51.326;-0.068;2024-01-30T14:21:41;7.45;;;1.70;;
69841;SDS011;57138;51.326;-0.068;2024-01-30T14:24:07;2.58;;;0.80;;
69841;SDS011;57138;51.326;-0.068;2024-01-30T14:26:32;4.28;;;1.58;;
69841;SDS011;57138;51.326;-0.068;2024-01-30T14:28:58;3.30;;;1.00;;